sensor_id;sensor_type;location;lat;lon;timestamp;pressure;altitude;pressure_sealevel;temperature;humidity
50226;BME280;36113;50.742;6.432;2022-09-24T00:02:18;147781.78;;;11.39;100.00
50226;BME280;36113;50.742;6.432;2022-09-24T00:04:44;147796.84;;;11.45;100.00
50226;BME280;36113;50.742;6.432;2022-09-24T00:07:09;147788.06;;;11.42;100.00
50226;BME280;36113;50.742;6.432;2022-09-24T00:09:34;147795.59;;;11.45;100.00
50226;BME280;36113;50.742;6.432;2022-09-24T00:12:00;147788.06;;;11.42;100.00
50226;BME280;36113;50.742;6.432;2022-09-24T00:14:26;147717.88;;;11.13;100.00
50226;BME280;36113;50.742;6.432;2022-09-24T00:16:51;147764.22;;;11.32;100.00
50226;BME280;36113;50.742;6.432;2022-09-24T00:19:17;147756.72;;;11.29;100.00
50226;BME280;36113;50.742;6.432;2022-09-24T00:21:42;147773.00;;;11.36;100.00
50226;BME280;36113;50.742;6.432;2022-09-24T00:24:12;147788.06;;;11.42;100.00
50226;BME280;36113;50.742;6.432;2022-09-24T00:27:00;147771.75;;;11.35;100.00
50226;BME280;36113;50.742;6.432;2022-09-24T00:29:27;147770.53;;;11.35;100.00
50226;BME280;36113;50.742;6.432;2022-09-24T00:31:52;147770.53;;;11.35;100.00
50226;BME280;36113;50.742;6.432;2022-09-24T00:34:18;147770.53;;;11.35;100.00
50226;BME280;36113;50.742;6.432;2022-09-24T00:36:44;147763.00;;;11.32;100.00
50226;BME280;36113;50.742;6.432;2022-09-24T00:39:13;147774.28;;;11.36;100.00
50226;BME280;36113;50.742;6.432;2022-09-24T00:41:39;147759.22;;;11.30;100.00
50226;BME280;36113;50.742;6.432;2022-09-24T00:46:59;147710.34;;;11.10;100.00
50226;BME280;36113;50.742;6.432;2022-09-24T00:49:24;147732.94;;;11.19;100.00
50226;BME280;36113;50.742;6.432;2022-09-24T00:51:51;147706.56;;;11.08;100.00
50226;BME280;36113;50.742;6.432;2022-09-24T00:54:27;147695.34;;;11.04;100.00
50226;BME280;36113;50.742;6.432;2022-09-24T00:56:54;147670.28;;;10.94;100.00
50226;BME280;36113;50.742;6.432;2022-09-24T00:59:22;147682.81;;;10.99;100.00
50226;BME280;36113;50.742;6.432;2022-09-24T01:01:50;147710.34;;;11.10;100.00
50226;BME280;36113;50.742;6.432;2022-09-24T01:04:22;147717.88;;;11.13;100.00
50226;BME280;36113;50.742;6.432;2022-09-24T01:06:48;147721.63;;;11.15;100.00
50226;BME280;36113;50.742;6.432;2022-09-24T01:09:15;147706.56;;;11.08;100.00
50226;BME280;36113;50.742;6.432;2022-09-24T01:16:51;147709.09;;;11.10;100.00
50226;BME280;36113;50.742;6.432;2022-09-24T01:19:42;147735.41;;;11.20;100.00
50226;BME280;36113;50.742;6.432;2022-09-24T01:25:01;147692.81;;;11.03;100.00
50226;BME280;36113;50.742;6.432;2022-09-24T01:30:10;147737.94;;;11.21;100.00
50226;BME280;36113;50.742;6.432;2022-09-24T01:32:57;147740.41;;;11.22;100.00
50226;BME280;36113;50.742;6.432;2022-09-24T01:35:39;147737.94;;;11.21;100.00
50226;BME280;36113;50.742;6.432;2022-09-24T01:38:22;147732.94;;;11.19;100.00
50226;BME280;36113;50.742;6.432;2022-09-24T01:40:50;147699.09;;;11.05;100.00
50226;BME280;36113;50.742;6.432;2022-09-24T01:43:20;147729.16;;;11.18;100.00
50226;BME280;36113;50.742;6.432;2022-09-24T01:45:47;147700.34;;;11.06;100.00
50226;BME280;36113;50.742;6.432;2022-09-24T01:48:12;147730.41;;;11.18;100.00
50226;BME280;36113;50.742;6.432;2022-09-24T01:50:45;147727.88;;;11.17;100.00
50226;BME280;36113;50.742;6.432;2022-09-24T01:53:21;147701.56;;;11.06;100.00
50226;BME280;36113;50.742;6.432;2022-09-24T01:55:52;147706.56;;;11.08;100.00
50226;BME280;36113;50.742;6.432;2022-09-24T01:58:32;147695.34;;;11.04;100.00
50226;BME280;36113;50.742;6.432;2022-09-24T02:01:06;147646.47;;;10.84;100.00
50226;BME280;36113;50.742;6.432;2022-09-24T02:03:38;147724.16;;;11.16;100.00
50226;BME280;36113;50.742;6.432;2022-09-24T02:06:32;147737.94;;;11.21;100.00
50226;BME280;36113;50.742;6.432;2022-09-24T02:08:59;147717.88;;;11.13;100.00
50226;BME280;36113;50.742;6.432;2022-09-24T02:11:24;147706.56;;;11.08;100.00
50226;BME280;36113;50.742;6.432;2022-09-24T02:13:55;147716.63;;;11.13;100.00
50226;BME280;36113;50.742;6.432;2022-09-24T02:16:33;147711.63;;;11.11;100.00
50226;BME280;36113;50.742;6.432;2022-09-24T02:19:04;147677.75;;;10.97;100.00
50226;BME280;36113;50.742;6.432;2022-09-24T02:21:31;147730.41;;;11.18;100.00
50226;BME280;36113;50.742;6.432;2022-09-24T02:24:07;147702.81;;;11.07;100.00
50226;BME280;36113;50.742;6.432;2022-09-24T02:26:35;147721.63;;;11.15;100.00
50226;BME280;36113;50.742;6.432;2022-09-24T02:29:01;147717.88;;;11.13;100.00
50226;BME280;36113;50.742;6.432;2022-09-24T02:31:31;147695.34;;;11.04;100.00
50226;BME280;36113;50.742;6.432;2022-09-24T02:34:02;147706.56;;;11.08;100.00
50226;BME280;36113;50.742;6.432;2022-09-24T02:36:56;147730.41;;;11.18;100.00
50226;BME280;36113;50.742;6.432;2022-09-24T02:39:23;147732.94;;;11.19;100.00
50226;BME280;36113;50.742;6.432;2022-09-24T02:41:49;147704.09;;;11.07;100.00
50226;BME280;36113;50.742;6.432;2022-09-24T02:44:17;147720.41;;;11.14;100.00
50226;BME280;36113;50.742;6.432;2022-09-24T02:46:44;147724.16;;;11.16;100.00
50226;BME280;36113;50.742;6.432;2022-09-24T02:49:09;147653.97;;;10.87;100.00
50226;BME280;36113;50.742;6.432;2022-09-24T02:51:35;147722.88;;;11.15;100.00
50226;BME280;36113;50.742;6.432;2022-09-24T02:54:01;147680.28;;;10.98;100.00
50226;BME280;36113;50.742;6.432;2022-09-24T02:56:27;147707.88;;;11.09;100.00
50226;BME280;36113;50.742;6.432;2022-09-24T02:58:53;147692.81;;;11.03;100.00
50226;BME280;36113;50.742;6.432;2022-09-24T03:01:19;147716.63;;;11.13;100.00
50226;BME280;36113;50.742;6.432;2022-09-24T03:03:45;147669.00;;;10.93;100.00
50226;BME280;36113;50.742;6.432;2022-09-24T03:06:11;147666.50;;;10.92;100.00
50226;BME280;36113;50.742;6.432;2022-09-24T03:08:37;147699.09;;;11.05;100.00
50226;BME280;36113;50.742;6.432;2022-09-24T03:11:03;147692.81;;;11.03;100.00
50226;BME280;36113;50.742;6.432;2022-09-24T03:13:28;147682.81;;;10.99;100.00
50226;BME280;36113;50.742;6.432;2022-09-24T03:15:54;147681.53;;;10.98;100.00
50226;BME280;36113;50.742;6.432;2022-09-24T03:18:19;147691.56;;;11.02;100.00
50226;BME280;36113;50.742;6.432;2022-09-24T03:21:03;147635.16;;;10.79;100.00
50226;BME280;36113;50.742;6.432;2022-09-24T03:23:28;147665.28;;;10.92;100.00
50226;BME280;36113;50.742;6.432;2022-09-24T03:25:55;147665.28;;;10.92;100.00
50226;BME280;36113;50.742;6.432;2022-09-24T03:28:21;147679.03;;;10.97;100.00
50226;BME280;36113;50.742;6.432;2022-09-24T03:30:46;147682.81;;;10.99;100.00
50226;BME280;36113;50.742;6.432;2022-09-24T03:33:24;147687.81;;;11.01;100.00
50226;BME280;36113;50.742;6.432;2022-09-24T03:35:54;147642.69;;;10.82;100.00
50226;BME280;36113;50.742;6.432;2022-09-24T03:38:19;147661.50;;;10.90;100.00
50226;BME280;36113;50.742;6.432;2022-09-24T03:40:44;147660.22;;;10.89;100.00
50226;BME280;36113;50.742;6.432;2022-09-24T03:43:10;147635.16;;;10.79;100.00
50226;BME280;36113;50.742;6.432;2022-09-24T03:45:35;147627.69;;;10.76;100.00
50226;BME280;36113;50.742;6.432;2022-09-24T03:48:01;147648.97;;;10.85;100.00
50226;BME280;36113;50.742;6.432;2022-09-24T03:50:27;147643.94;;;10.83;100.00
50226;BME280;36113;50.742;6.432;2022-09-24T03:52:52;147660.22;;;10.89;100.00
50226;BME280;36113;50.742;6.432;2022-09-24T03:55:17;147592.59;;;10.62;100.00
50226;BME280;36113;50.742;6.432;2022-09-24T03:57:43;147638.94;;;10.81;100.00
50226;BME280;36113;50.742;6.432;2022-09-24T04:00:09;147640.22;;;10.81;100.00
50226;BME280;36113;50.742;6.432;2022-09-24T04:02:34;147598.88;;;10.64;100.00
50226;BME280;36113;50.742;6.432;2022-09-24T04:05:00;147607.63;;;10.68;100.00
50226;BME280;36113;50.742;6.432;2022-09-24T04:07:25;147593.81;;;10.62;100.00
50226;BME280;36113;50.742;6.432;2022-09-24T04:09:51;147632.69;;;10.78;100.00
50226;BME280;36113;50.742;6.432;2022-09-24T04:12:16;147585.06;;;10.59;100.00
50226;BME280;36113;50.742;6.432;2022-09-24T04:14:42;147567.53;;;10.51;100.00
50226;BME280;36113;50.742;6.432;2022-09-24T04:17:08;147593.81;;;10.62;100.00
50226;BME280;36113;50.742;6.432;2022-09-24T04:19:34;147578.81;;;10.56;100.00
50226;BME280;36113;50.742;6.432;2022-09-24T04:21:59;147558.78;;;10.48;100.00
50226;BME280;36113;50.742;6.432;2022-09-24T04:24:24;147593.81;;;10.62;100.00
50226;BME280;36113;50.742;6.432;2022-09-24T04:26:50;147600.09;;;10.65;100.00
50226;BME280;36113;50.742;6.432;2022-09-24T04:29:15;147550.00;;;10.44;100.00
50226;BME280;36113;50.742;6.432;2022-09-24T04:31:40;147618.88;;;10.73;100.00
50226;BME280;36113;50.742;6.432;2022-09-24T04:34:07;147618.88;;;10.73;100.00
50226;BME280;36113;50.742;6.432;2022-09-24T04:36:32;147596.34;;;10.63;100.00
50226;BME280;36113;50.742;6.432;2022-09-24T04:38:58;147658.97;;;10.89;100.00
50226;BME280;36113;50.742;6.432;2022-09-24T04:41:23;147655.22;;;10.87;100.00
50226;BME280;36113;50.742;6.432;2022-09-24T04:43:48;147642.69;;;10.82;100.00
50226;BME280;36113;50.742;6.432;2022-09-24T04:46:15;147646.47;;;10.84;100.00
50226;BME280;36113;50.742;6.432;2022-09-24T04:48:42;147616.41;;;10.72;100.00
50226;BME280;36113;50.742;6.432;2022-09-24T04:51:08;147627.69;;;10.76;100.00
50226;BME280;36113;50.742;6.432;2022-09-24T04:53:35;147611.41;;;10.69;100.00
50226;BME280;36113;50.742;6.432;2022-09-24T04:56:02;147601.34;;;10.65;100.00
50226;BME280;36113;50.742;6.432;2022-09-24T04:58:28;147566.28;;;10.51;100.00
50226;BME280;36113;50.742;6.432;2022-09-24T05:00:53;147580.06;;;10.57;100.00
50226;BME280;36113;50.742;6.432;2022-09-24T05:03:19;147571.28;;;10.53;100.00
50226;BME280;36113;50.742;6.432;2022-09-24T05:05:45;147526.19;;;10.35;100.00
50226;BME280;36113;50.742;6.432;2022-09-24T05:08:11;147565.06;;;10.50;100.00
50226;BME280;36113;50.742;6.432;2022-09-24T05:10:37;147567.53;;;10.51;100.00
50226;BME280;36113;50.742;6.432;2022-09-24T05:13:02;147583.81;;;10.58;100.00
50226;BME280;36113;50.742;6.432;2022-09-24T05:15:28;147601.34;;;10.65;100.00
50226;BME280;36113;50.742;6.432;2022-09-24T05:17:53;147597.59;;;10.64;100.00
50226;BME280;36113;50.742;6.432;2022-09-24T05:20:19;147610.13;;;10.69;100.00
50226;BME280;36113;50.742;6.432;2022-09-24T05:22:45;147582.59;;;10.58;100.00
50226;BME280;36113;50.742;6.432;2022-09-24T05:25:13;147625.16;;;10.75;100.00
50226;BME280;36113;50.742;6.432;2022-09-24T05:27:59;147646.47;;;10.84;100.00
50226;BME280;36113;50.742;6.432;2022-09-24T05:30:24;147635.16;;;10.79;100.00
50226;BME280;36113;50.742;6.432;2022-09-24T05:32:50;147641.44;;;10.82;100.00
50226;BME280;36113;50.742;6.432;2022-09-24T05:35:22;147640.22;;;10.81;100.00
50226;BME280;36113;50.742;6.432;2022-09-24T05:37:48;147602.63;;;10.66;100.00
50226;BME280;36113;50.742;6.432;2022-09-24T05:40:13;147642.69;;;10.82;100.00
50226;BME280;36113;50.742;6.432;2022-09-24T05:43:00;147652.75;;;10.86;100.00
50226;BME280;36113;50.742;6.432;2022-09-24T05:45:26;147640.22;;;10.81;100.00
50226;BME280;36113;50.742;6.432;2022-09-24T05:47:51;147618.88;;;10.73;100.00
50226;BME280;36113;50.742;6.432;2022-09-24T05:50:17;147660.22;;;10.89;100.00
50226;BME280;36113;50.742;6.432;2022-09-24T05:52:42;147666.50;;;10.92;100.00
50226;BME280;36113;50.742;6.432;2022-09-24T05:55:10;147667.75;;;10.93;100.00
50226;BME280;36113;50.742;6.432;2022-09-24T05:57:36;147663.97;;;10.91;100.00
50226;BME280;36113;50.742;6.432;2022-09-24T06:00:03;147670.28;;;10.94;100.00
50226;BME280;36113;50.742;6.432;2022-09-24T06:02:29;147666.50;;;10.92;100.00
50226;BME280;36113;50.742;6.432;2022-09-24T06:04:54;147661.50;;;10.90;100.00
50226;BME280;36113;50.742;6.432;2022-09-24T06:07:20;147674.03;;;10.95;100.00
50226;BME280;36113;50.742;6.432;2022-09-24T06:09:45;147653.97;;;10.87;100.00
50226;BME280;36113;50.742;6.432;2022-09-24T06:12:12;147674.03;;;10.95;100.00
50226;BME280;36113;50.742;6.432;2022-09-24T06:14:38;147637.69;;;10.80;100.00
50226;BME280;36113;50.742;6.432;2022-09-24T06:17:04;147685.28;;;11.00;100.00
50226;BME280;36113;50.742;6.432;2022-09-24T06:19:29;147684.03;;;10.99;100.00
50226;BME280;36113;50.742;6.432;2022-09-24T06:21:55;147692.81;;;11.03;100.00
50226;BME280;36113;50.742;6.432;2022-09-24T06:24:21;147712.88;;;11.11;100.00
50226;BME280;36113;50.742;6.432;2022-09-24T06:26:47;147724.16;;;11.16;100.00
50226;BME280;36113;50.742;6.432;2022-09-24T06:29:12;147731.66;;;11.19;100.00
50226;BME280;36113;50.742;6.432;2022-09-24T06:31:39;147705.34;;;11.08;100.00
50226;BME280;36113;50.742;6.432;2022-09-24T06:34:04;147749.22;;;11.26;100.00
50226;BME280;36113;50.742;6.432;2022-09-24T06:36:29;147725.41;;;11.16;100.00
50226;BME280;36113;50.742;6.432;2022-09-24T06:38:55;147775.53;;;11.37;100.00
50226;BME280;36113;50.742;6.432;2022-09-24T06:41:22;147794.31;;;11.44;100.00
50226;BME280;36113;50.742;6.432;2022-09-24T06:43:48;147810.59;;;11.51;100.00
50226;BME280;36113;50.742;6.432;2022-09-24T06:46:13;147825.66;;;11.57;100.00
50226;BME280;36113;50.742;6.432;2022-09-24T06:48:40;147813.13;;;11.52;100.00
50226;BME280;36113;50.742;6.432;2022-09-24T06:51:05;147854.50;;;11.69;100.00
50226;BME280;36113;50.742;6.432;2022-09-24T06:53:31;147833.19;;;11.60;100.00
50226;BME280;36113;50.742;6.432;2022-09-24T06:55:57;147899.59;;;11.88;100.00
50226;BME280;36113;50.742;6.432;2022-09-24T06:58:27;147873.28;;;11.77;100.00
50226;BME280;36113;50.742;6.432;2022-09-24T07:00:55;147918.47;;;11.95;100.00
50226;BME280;36113;50.742;6.432;2022-09-24T07:03:27;147915.94;;;11.94;100.00
50226;BME280;36113;50.742;6.432;2022-09-24T07:05:53;147928.50;;;11.99;100.00
50226;BME280;36113;50.742;6.432;2022-09-24T07:08:18;147973.63;;;12.18;100.00
50226;BME280;36113;50.742;6.432;2022-09-24T07:10:45;147996.19;;;12.27;100.00
50226;BME280;36113;50.742;6.432;2022-09-24T07:13:12;148011.25;;;12.33;100.00
50226;BME280;36113;50.742;6.432;2022-09-24T07:15:39;148027.56;;;12.40;100.00
50226;BME280;36113;50.742;6.432;2022-09-24T07:18:04;148021.28;;;12.37;100.00
50226;BME280;36113;50.742;6.432;2022-09-24T07:20:29;147986.19;;;12.23;100.00
50226;BME280;36113;50.742;6.432;2022-09-24T07:22:55;148045.13;;;12.47;100.00
50226;BME280;36113;50.742;6.432;2022-09-24T07:25:20;148120.41;;;12.78;100.00
50226;BME280;36113;50.742;6.432;2022-09-24T07:27:46;148139.19;;;12.86;100.00
50226;BME280;36113;50.742;6.432;2022-09-24T07:30:11;148168.06;;;12.98;100.00
50226;BME280;36113;50.742;6.432;2022-09-24T07:32:37;148185.66;;;13.05;100.00
50226;BME280;36113;50.742;6.432;2022-09-24T07:35:03;148170.56;;;12.99;100.00
50226;BME280;36113;50.742;6.432;2022-09-24T07:37:28;148149.25;;;12.90;100.00
50226;BME280;36113;50.742;6.432;2022-09-24T07:39:56;148186.91;;;13.05;100.00
50226;BME280;36113;50.742;6.432;2022-09-24T07:42:22;148194.44;;;13.08;100.00
50226;BME280;36113;50.742;6.432;2022-09-24T07:44:49;148184.38;;;13.04;100.00
50226;BME280;36113;50.742;6.432;2022-09-24T07:47:14;148237.09;;;13.26;100.00
50226;BME280;36113;50.742;6.432;2022-09-24T07:49:40;148250.94;;;13.31;100.00
50226;BME280;36113;50.742;6.432;2022-09-24T07:52:06;148208.22;;;13.14;100.00
50226;BME280;36113;50.742;6.432;2022-09-24T07:54:31;148245.88;;;13.29;100.00
50226;BME280;36113;50.742;6.432;2022-09-24T07:56:57;148282.34;;;13.44;100.00
50226;BME280;36113;50.742;6.432;2022-09-24T07:59:22;148318.69;;;13.59;100.00
50226;BME280;36113;50.742;6.432;2022-09-24T08:01:49;148312.44;;;13.57;100.00
50226;BME280;36113;50.742;6.432;2022-09-24T08:04:17;148356.38;;;13.75;100.00
50226;BME280;36113;50.742;6.432;2022-09-24T08:06:43;148352.59;;;13.73;100.00
50226;BME280;36113;50.742;6.432;2022-09-24T08:09:08;148371.44;;;13.81;100.00
50226;BME280;36113;50.742;6.432;2022-09-24T08:11:33;148372.69;;;13.81;100.00
50226;BME280;36113;50.742;6.432;2022-09-24T08:13:59;148382.72;;;13.85;100.00
50226;BME280;36113;50.742;6.432;2022-09-24T08:16:25;148411.59;;;13.97;100.00
50226;BME280;36113;50.742;6.432;2022-09-24T08:18:51;148373.94;;;13.82;100.00
50226;BME280;36113;50.742;6.432;2022-09-24T08:21:16;148360.13;;;13.76;100.00
50226;BME280;36113;50.742;6.432;2022-09-24T08:23:42;148411.59;;;13.97;100.00
50226;BME280;36113;50.742;6.432;2022-09-24T08:26:12;148444.25;;;14.11;100.00
50226;BME280;36113;50.742;6.432;2022-09-24T08:28:38;148358.91;;;13.76;100.00
50226;BME280;36113;50.742;6.432;2022-09-24T08:31:07;148439.25;;;14.09;100.00
50226;BME280;36113;50.742;6.432;2022-09-24T08:33:34;148478.16;;;14.24;100.00
50226;BME280;36113;50.742;6.432;2022-09-24T08:36:01;148495.72;;;14.32;100.00
50226;BME280;36113;50.742;6.432;2022-09-24T08:38:27;148399.03;;;13.92;100.00
50226;BME280;36113;50.742;6.432;2022-09-24T08:43:39;148438.00;;;14.08;100.00
50226;BME280;36113;50.742;6.432;2022-09-24T08:46:21;148350.09;;;13.72;100.00
50226;BME280;36113;50.742;6.432;2022-09-24T08:49:12;148402.81;;;13.94;100.00
50226;BME280;36113;50.742;6.432;2022-09-24T08:51:49;148430.47;;;14.05;100.00
50226;BME280;36113;50.742;6.432;2022-09-24T08:54:19;148470.63;;;14.21;100.00
50226;BME280;36113;50.742;6.432;2022-09-24T08:56:45;148522.16;;;14.42;100.00
50226;BME280;36113;50.742;6.432;2022-09-24T08:59:23;148554.75;;;14.56;100.00
50226;BME280;36113;50.742;6.432;2022-09-24T09:02:14;148500.78;;;14.34;100.00
50226;BME280;36113;50.742;6.432;2022-09-24T09:07:27;148545.97;;;14.52;100.00
50226;BME280;36113;50.742;6.432;2022-09-24T09:10:03;148543.50;;;14.51;100.00
50226;BME280;36113;50.742;6.432;2022-09-24T09:12:39;148515.84;;;14.40;100.00
50226;BME280;36113;50.742;6.432;2022-09-24T09:20:28;148568.66;;;14.61;100.00
50226;BME280;36113;50.742;6.432;2022-09-24T09:22:56;148520.84;;;14.42;100.00
50226;BME280;36113;50.742;6.432;2022-09-24T09:25:26;148504.53;;;14.35;100.00
50226;BME280;36113;50.742;6.432;2022-09-24T09:28:12;148537.19;;;14.49;100.00
50226;BME280;36113;50.742;6.432;2022-09-24T09:35:50;148445.50;;;14.11;100.00
50226;BME280;36113;50.742;6.432;2022-09-24T09:38:21;148533.41;;;14.47;100.00
50226;BME280;36113;50.742;6.432;2022-09-24T09:42:15;148532.16;;;14.47;100.00
50226;BME280;36113;50.742;6.432;2022-09-24T09:44:14;148547.25;;;14.53;100.00
50226;BME280;36113;50.742;6.432;2022-09-24T09:46:56;148530.94;;;14.46;100.00
50226;BME280;36113;50.742;6.432;2022-09-24T09:49:26;148534.69;;;14.48;100.00
50226;BME280;36113;50.742;6.432;2022-09-24T09:51:56;148517.06;;;14.40;100.00
50226;BME280;36113;50.742;6.432;2022-09-24T09:54:34;148478.16;;;14.24;100.00
50226;BME280;36113;50.742;6.432;2022-09-24T09:57:01;148499.50;;;14.33;100.00
50226;BME280;36113;50.742;6.432;2022-09-24T09:59:28;148445.50;;;14.11;100.00
50226;BME280;36113;50.742;6.432;2022-09-24T10:01:55;148432.94;;;14.06;100.00
50226;BME280;36113;50.742;6.432;2022-09-24T10:07:02;148488.22;;;14.29;100.00
50226;BME280;36113;50.742;6.432;2022-09-24T10:09:28;148515.84;;;14.40;100.00
50226;BME280;36113;50.742;6.432;2022-09-24T10:11:53;148495.72;;;14.32;100.00
50226;BME280;36113;50.742;6.432;2022-09-24T10:14:18;148553.53;;;14.55;100.00
50226;BME280;36113;50.742;6.432;2022-09-24T10:16:50;148533.41;;;14.47;100.00
50226;BME280;36113;50.742;6.432;2022-09-24T10:19:25;148510.81;;;14.38;100.00
50226;BME280;36113;50.742;6.432;2022-09-24T10:21:53;148484.47;;;14.27;100.00
50226;BME280;36113;50.742;6.432;2022-09-24T10:24:23;148481.94;;;14.26;100.00
50226;BME280;36113;50.742;6.432;2022-09-24T10:26:50;148470.63;;;14.21;100.00
50226;BME280;36113;50.742;6.432;2022-09-24T10:29:19;148473.16;;;14.22;100.00
50226;BME280;36113;50.742;6.432;2022-09-24T10:32:05;148445.50;;;14.11;100.00
50226;BME280;36113;50.742;6.432;2022-09-24T10:34:37;148422.91;;;14.02;100.00
50226;BME280;36113;50.742;6.432;2022-09-24T10:37:12;148456.81;;;14.16;100.00
50226;BME280;36113;50.742;6.432;2022-09-24T10:39:39;148471.91;;;14.22;100.00
50226;BME280;36113;50.742;6.432;2022-09-24T10:42:04;148483.16;;;14.26;100.00
50226;BME280;36113;50.742;6.432;2022-09-24T10:44:35;148532.16;;;14.47;100.00
50226;BME280;36113;50.742;6.432;2022-09-24T10:47:05;148486.94;;;14.28;100.00
50226;BME280;36113;50.742;6.432;2022-09-24T11:00:21;148535.94;;;14.48;100.00
50226;BME280;36113;50.742;6.432;2022-09-24T11:03:01;148509.59;;;14.37;100.00
50226;BME280;36113;50.742;6.432;2022-09-24T11:14:14;148588.72;;;14.70;100.00
50226;BME280;36113;50.742;6.432;2022-09-24T11:17:09;148638.97;;;14.90;100.00
50226;BME280;36113;50.742;6.432;2022-09-24T11:22:39;148590.00;;;14.70;100.00
50226;BME280;36113;50.742;6.432;2022-09-24T11:25:28;148591.25;;;14.71;100.00
50226;BME280;36113;50.742;6.432;2022-09-24T11:33:59;148595.03;;;14.72;100.00
50226;BME280;36113;50.742;6.432;2022-09-24T11:37:10;148566.13;;;14.60;100.00
50226;BME280;36113;50.742;6.432;2022-09-24T11:43:27;148605.06;;;14.76;100.00
50226;BME280;36113;50.742;6.432;2022-09-24T11:45:55;148610.13;;;14.78;100.00
50226;BME280;36113;50.742;6.432;2022-09-24T11:48:29;148621.41;;;14.83;100.00
50226;BME280;36113;50.742;6.432;2022-09-24T11:51:33;148664.09;;;15.00;100.00
50226;BME280;36113;50.742;6.432;2022-09-24T11:54:16;148633.97;;;14.88;100.00
50226;BME280;36113;50.742;6.432;2022-09-24T11:56:48;148654.06;;;14.96;100.00
50226;BME280;36113;50.742;6.432;2022-09-24T11:59:25;148699.31;;;15.15;100.00
50226;BME280;36113;50.742;6.432;2022-09-24T12:01:59;148744.56;;;15.33;100.00
50226;BME280;36113;50.742;6.432;2022-09-24T12:04:57;148745.81;;;15.34;100.00
50226;BME280;36113;50.742;6.432;2022-09-24T12:07:27;148760.88;;;15.40;100.00
50226;BME280;36113;50.742;6.432;2022-09-24T12:10:04;148705.59;;;15.17;100.00
50226;BME280;36113;50.742;6.432;2022-09-24T12:12:40;148710.59;;;15.19;100.00
50226;BME280;36113;50.742;6.432;2022-09-24T12:15:23;148651.53;;;14.95;100.00
50226;BME280;36113;50.742;6.432;2022-09-24T12:18:02;148664.09;;;15.00;100.00
50226;BME280;36113;50.742;6.432;2022-09-24T12:20:40;148636.50;;;14.89;100.00
50226;BME280;36113;50.742;6.432;2022-09-24T12:23:12;148593.78;;;14.72;100.00
50226;BME280;36113;50.742;6.432;2022-09-24T12:25:42;148576.16;;;14.65;100.00
50226;BME280;36113;50.742;6.432;2022-09-24T12:28:17;148645.28;;;14.93;100.00
50226;BME280;36113;50.742;6.432;2022-09-24T12:31:31;148636.50;;;14.89;100.00
50226;BME280;36113;50.742;6.432;2022-09-24T12:34:44;148650.31;;;14.95;100.00
50226;BME280;36113;50.742;6.432;2022-09-24T12:37:14;148669.16;;;15.03;100.00
50226;BME280;36113;50.742;6.432;2022-09-24T12:39:56;148651.53;;;14.95;100.00
50226;BME280;36113;50.742;6.432;2022-09-24T12:42:31;148625.16;;;14.85;100.00
50226;BME280;36113;50.742;6.432;2022-09-24T12:44:59;148666.63;;;15.02;100.00
50226;BME280;36113;50.742;6.432;2022-09-24T12:47:27;148627.69;;;14.86;100.00
50226;BME280;36113;50.742;6.432;2022-09-24T12:49:57;148601.28;;;14.75;100.00
50226;BME280;36113;50.742;6.432;2022-09-24T12:52:35;148615.13;;;14.80;100.00
50226;BME280;36113;50.742;6.432;2022-09-24T12:55:03;148596.28;;;14.73;100.00
50226;BME280;36113;50.742;6.432;2022-09-24T12:57:34;148583.72;;;14.68;100.00
50226;BME280;36113;50.742;6.432;2022-09-24T13:00:04;148566.13;;;14.60;100.00
50226;BME280;36113;50.742;6.432;2022-09-24T13:02:47;148585.00;;;14.68;100.00
50226;BME280;36113;50.742;6.432;2022-09-24T13:05:24;148640.28;;;14.91;100.00
50226;BME280;36113;50.742;6.432;2022-09-24T13:10:34;148625.16;;;14.85;100.00
50226;BME280;36113;50.742;6.432;2022-09-24T13:13:02;148597.56;;;14.73;100.00
50226;BME280;36113;50.742;6.432;2022-09-24T13:15:35;148598.81;;;14.74;100.00
50226;BME280;36113;50.742;6.432;2022-09-24T13:20:31;148651.53;;;14.95;100.00
50226;BME280;36113;50.742;6.432;2022-09-24T13:23:09;148632.72;;;14.88;100.00
50226;BME280;36113;50.742;6.432;2022-09-24T13:25:36;148625.16;;;14.85;100.00
50226;BME280;36113;50.742;6.432;2022-09-24T13:28:19;148631.47;;;14.87;100.00
50226;BME280;36113;50.742;6.432;2022-09-24T13:30:49;148637.75;;;14.90;100.00
50226;BME280;36113;50.742;6.432;2022-09-24T13:33:29;148642.75;;;14.92;100.00
50226;BME280;36113;50.742;6.432;2022-09-24T13:36:13;148606.34;;;14.77;100.00
50226;BME280;36113;50.742;6.432;2022-09-24T13:43:50;148571.16;;;14.62;100.00
50226;BME280;36113;50.742;6.432;2022-09-24T13:46:18;148591.25;;;14.71;100.00
50226;BME280;36113;50.742;6.432;2022-09-24T13:48:46;148601.28;;;14.75;100.00
50226;BME280;36113;50.742;6.432;2022-09-24T13:51:15;148610.13;;;14.78;100.00
50226;BME280;36113;50.742;6.432;2022-09-24T13:53:51;148610.13;;;14.78;100.00
50226;BME280;36113;50.742;6.432;2022-09-24T13:56:19;148567.38;;;14.61;100.00
50226;BME280;36113;50.742;6.432;2022-09-24T13:58:46;148586.25;;;14.69;100.00
50226;BME280;36113;50.742;6.432;2022-09-24T14:01:25;148598.81;;;14.74;100.00
50226;BME280;36113;50.742;6.432;2022-09-24T14:04:05;148563.59;;;14.59;100.00
50226;BME280;36113;50.742;6.432;2022-09-24T14:06:35;148593.78;;;14.72;100.00
50226;BME280;36113;50.742;6.432;2022-09-24T14:09:01;148524.63;;;14.43;100.00
50226;BME280;36113;50.742;6.432;2022-09-24T14:11:27;148559.81;;;14.58;100.00